Time;durP1;ratioP1;P1;durP2;ratioP2;P2;SDS_P1;SDS_P2;PMS_P1;PMS_P2;Temp;Humidity;BMP_temperature;BMP_pressure;BME280_temperature;BME280_humidity;BME280_pressure;Samples;Min_cycle;Max_cycle;Signal;HPM_P1;HPM_P2
2022/04/09 00:00:31;;;;;;;0.40;0.40;;;;;;;3.36;79.80;99077.75;5113579;28;20803;-80
2022/04/09 00:02:57;;;;;;;0.40;0.40;;;;;;;3.43;79.07;99086.47;5102145;28;20401;-80
2022/04/09 00:05:22;;;;;;;0.40;0.40;;;;;;;3.43;78.74;99095.31;5097452;28;20390;-80
2022/04/09 00:07:48;;;;;;;0.40;0.40;;;;;;;3.37;80.12;99106.97;5110547;28;20477;-81
2022/04/09 00:10:14;;;;;;;0.33;0.33;;;;;;;3.42;79.66;99106.28;5108765;28;20473;-80
2022/04/09 00:12:44;;;;;;;0.60;0.60;;;;;;;3.51;80.19;99110.25;5106367;27;20451;-80
2022/04/09 00:15:09;;;;;;;0.65;0.65;;;;;;;3.58;80.11;99119.00;5114886;27;20380;-80
2022/04/09 00:17:39;;;;;;;0.40;0.40;;;;;;;3.59;79.50;99126.78;5105004;28;20943;-80
2022/04/09 00:20:06;;;;;;;0.32;0.32;;;;;;;3.38;78.65;99129.22;5113264;27;20821;-80
2022/04/09 00:22:31;;;;;;;0.50;0.50;;;;;;;3.35;79.69;99132.34;5101672;28;20464;-80
2022/04/09 00:24:56;;;;;;;0.20;0.20;;;;;;;3.27;79.46;99135.34;5110146;28;20521;-80
2022/04/09 00:27:22;;;;;;;0.40;0.30;;;;;;;3.27;80.32;99135.34;5096783;28;20443;-80
2022/04/09 00:29:47;;;;;;;0.30;0.30;;;;;;;3.34;79.90;99141.41;5107251;28;20388;-80
2022/04/09 00:32:12;;;;;;;0.30;0.30;;;;;;;3.39;79.79;99154.94;5105974;28;20875;-80
2022/04/09 00:34:37;;;;;;;0.30;0.30;;;;;;;3.32;79.34;99167.63;5100547;28;20427;-80
2022/04/09 00:37:03;;;;;;;0.40;0.40;;;;;;;3.22;79.95;99173.53;5107977;28;20411;-80
2022/04/09 00:39:28;;;;;;;0.70;0.70;;;;;;;3.17;80.24;99189.44;5100962;28;20416;-81
2022/04/09 00:41:53;;;;;;;1.40;1.40;;;;;;;3.19;80.15;99199.94;5112964;28;20427;-80
2022/04/09 00:44:22;;;;;;;0.90;0.90;;;;;;;3.22;80.58;99207.53;5099232;28;20394;-80
2022/04/09 00:46:48;;;;;;;0.30;0.30;;;;;;;3.20;80.87;99220.28;5106330;28;20404;-81
2022/04/09 00:49:15;;;;;;;0.40;0.40;;;;;;;3.27;80.49;99232.56;5114385;28;20509;-80
2022/04/09 00:51:42;;;;;;;0.65;0.65;;;;;;;3.26;79.95;99252.31;5104627;28;20386;-80
2022/04/09 00:54:11;;;;;;;0.60;0.60;;;;;;;3.18;80.11;99258.03;5108270;28;20412;-80
2022/04/09 00:56:38;;;;;;;0.80;0.80;;;;;;;3.21;80.71;99264.78;5095632;28;20777;-81
2022/04/09 00:59:06;;;;;;;0.80;0.80;;;;;;;3.09;79.98;99270.09;5114736;28;21138;-81
2022/04/09 01:01:34;;;;;;;1.20;1.20;;;;;;;3.03;80.19;99265.63;5104567;27;20398;-81
2022/04/09 01:03:59;;;;;;;1.60;1.60;;;;;;;3.07;80.74;99288.22;5107503;28;20380;-80
2022/04/09 01:06:25;;;;;;;2.50;1.47;;;;;;;3.06;81.08;99297.31;5097745;28;20390;-81
2022/04/09 01:08:50;;;;;;;1.90;1.90;;;;;;;2.99;81.17;99304.59;5108602;28;20408;-81
2022/04/09 01:11:16;;;;;;;3.40;3.20;;;;;;;3.07;80.75;99307.78;5103944;28;20783;-80
2022/04/09 01:13:42;;;;;;;3.55;3.45;;;;;;;3.05;80.43;99306.38;5107288;28;20411;-81
2022/04/09 01:16:08;;;;;;;3.90;3.70;;;;;;;3.02;80.93;99323.69;5111926;27;20396;-81
2022/04/09 01:18:35;;;;;;;4.00;3.70;;;;;;;3.09;80.83;99318.25;5112095;28;20404;-81
2022/04/09 01:21:01;;;;;;;4.10;3.90;;;;;;;3.00;81.09;99327.63;5105260;28;20378;-81
2022/04/09 01:23:27;;;;;;;4.30;4.10;;;;;;;2.96;80.66;99331.81;5099951;28;20932;-81
2022/04/09 01:25:55;;;;;;;4.60;4.40;;;;;;;2.98;81.13;99343.91;5107922;28;20506;-81
2022/04/09 01:28:21;;;;;;;5.57;5.17;;;;;;;3.01;80.22;99353.34;5111109;28;20889;-81
2022/04/09 01:30:46;;;;;;;5.23;4.83;;;;;;;2.95;80.08;99356.91;5107952;28;20431;-82
2022/04/09 01:33:15;;;;;;;5.40;5.10;;;;;;;2.77;80.83;99364.91;5101712;28;20414;-81
2022/04/09 01:35:41;;;;;;;5.22;4.93;;;;;;;2.89;81.00;99372.00;5107963;28;20460;-82
2022/04/09 01:38:06;;;;;;;5.87;5.47;;;;;;;3.03;81.33;99383.41;5111391;27;20396;-82
2022/04/09 01:40:31;;;;;;;5.73;5.20;;;;;;;3.06;81.07;99393.66;5104978;28;20386;-82
2022/04/09 01:42:56;;;;;;;6.05;5.65;;;;;;;3.06;81.25;99396.34;5104537;28;20404;-82
2022/04/09 01:45:22;;;;;;;6.30;5.80;;;;;;;3.05;80.97;99400.88;5105064;28;20399;-82
2022/04/09 01:47:47;;;;;;;6.37;5.87;;;;;;;3.01;80.84;99415.72;5096988;28;20390;-84
2022/04/09 01:50:12;;;;;;;5.70;5.30;;;;;;;3.05;81.27;99416.94;5107464;28;20386;-83
2022/04/09 01:52:38;;;;;;;6.27;5.67;;;;;;;3.02;80.98;99428.06;5099479;28;20480;-84
2022/04/09 01:55:04;;;;;;;5.80;5.40;;;;;;;3.10;81.12;99430.44;5113607;28;20380;-84
2022/04/09 01:57:29;;;;;;;4.93;4.63;;;;;;;3.09;80.69;99449.44;5096749;28;20465;-84
2022/04/09 01:59:55;;;;;;;5.57;5.17;;;;;;;3.10;80.90;99449.19;5106390;28;20493;-85
2022/04/09 02:02:20;;;;;;;4.87;4.57;;;;;;;3.02;81.03;99451.34;5104074;28;20400;-85
2022/04/09 02:04:45;;;;;;;4.20;4.00;;;;;;;3.06;81.03;99460.56;5105820;28;20389;-86
2022/04/09 02:07:10;;;;;;;4.77;4.47;;;;;;;3.10;80.74;99467.94;5105093;28;20915;-85
2022/04/09 02:09:36;;;;;;;4.10;3.90;;;;;;;3.11;80.91;99484.81;5098846;28;20407;-86
2022/04/09 02:12:01;;;;;;;4.63;4.33;;;;;;;3.13;81.12;99486.22;5112121;28;20412;-87
2022/04/09 02:14:26;;;;;;;4.30;4.03;;;;;;;3.17;80.96;99486.59;5100854;28;20416;-86
2022/04/09 02:16:52;;;;;;;4.13;3.93;;;;;;;3.14;80.69;99487.88;5095679;28;20757;-88
2022/04/09 02:19:18;;;;;;;3.90;3.70;;;;;;;3.13;81.24;99491.56;5108480;28;20405;-88
2022/04/09 02:21:43;;;;;;;4.32;4.03;;;;;;;3.18;80.64;99503.47;5099479;28;20747;-88
2022/04/09 02:24:09;;;;;;;4.33;4.03;;;;;;;3.09;81.34;99521.69;5100862;28;20410;-88
2022/04/09 02:26:34;;;;;;;4.30;4.10;;;;;;;3.08;81.72;99528.09;5091939;28;20890;-89
2022/04/09 02:29:00;;;;;;;4.27;3.97;;;;;;;3.05;81.54;99542.72;5109186;28;20448;-88
2022/04/09 02:31:25;;;;;;;3.60;3.40;;;;;;;3.06;81.48;99554.25;5098099;28;20395;-88
2022/04/09 02:33:50;;;;;;;4.00;3.77;;;;;;;3.01;81.10;99562.94;5103381;28;20757;-89
2022/04/09 02:36:16;;;;;;;3.60;3.40;;;;;;;2.96;81.70;99567.31;5102085;28;20390;-89
2022/04/09 02:38:42;;;;;;;3.47;3.27;;;;;;;3.02;81.88;99564.56;5100635;28;20408;-89
2022/04/09 02:41:11;;;;;;;3.22;3.03;;;;;;;3.11;81.44;99571.28;5099170;28;20417;-89
2022/04/09 02:43:37;;;;;;;3.50;3.38;;;;;;;3.14;81.52;99581.56;5100136;28;20396;-89
2022/04/09 02:46:03;;;;;;;2.90;2.70;;;;;;;3.14;82.06;99584.25;5107696;28;20396;-90
2022/04/09 02:48:28;;;;;;;2.90;2.80;;;;;;;3.11;81.80;99587.34;5110847;28;20411;-90
2022/04/09 02:50:54;;;;;;;3.50;3.30;;;;;;;3.16;81.77;99593.91;5113060;27;20406;-90
2022/04/09 02:53:19;;;;;;;3.70;3.40;;;;;;;3.07;81.60;99604.06;5105547;28;20418;-90
2022/04/09 02:55:45;;;;;;;4.93;4.63;;;;;;;3.11;81.75;99606.09;5101469;28;20481;-92
2022/04/09 02:58:10;;;;;;;6.85;6.28;;;;;;;3.13;81.83;99616.56;5102780;28;20396;-91
2022/04/09 03:00:35;;;;;;;4.37;4.10;;;;;;;3.19;81.66;99625.59;5113151;28;20887;-90
2022/04/09 03:03:01;;;;;;;3.30;3.10;;;;;;;3.27;81.90;99636.03;5106816;28;20405;-91
2022/04/09 03:05:26;;;;;;;3.70;3.50;;;;;;;3.17;81.78;99638.38;5099409;27;20749;-91
2022/04/09 03:07:51;;;;;;;4.47;4.03;;;;;;;3.06;82.01;99632.69;5129383;27;20408;-92
2022/04/09 03:10:17;;;;;;;4.23;4.00;;;;;;;3.11;82.15;99643.56;5121111;28;20860;-94
2022/04/09 03:12:46;;;;;;;4.37;4.07;;;;;;;3.20;82.31;99645.97;5119637;28;20402;-93
2022/04/09 03:15:13;;;;;;;5.90;5.40;;;;;;;3.13;82.41;99654.88;5115619;28;20406;-93
2022/04/09 03:17:39;;;;;;;5.80;5.30;;;;;;;3.07;82.63;99652.25;5101321;28;20416;-92
2022/04/09 03:20:06;;;;;;;6.00;5.43;;;;;;;3.07;82.62;99660.28;5102457;28;20413;-91
2022/04/09 03:22:31;;;;;;;6.30;5.80;;;;;;;3.09;82.38;99677.78;5109570;28;20412;-94
2022/04/09 03:25:00;;;;;;;6.10;5.60;;;;;;;3.11;82.69;99678.38;5106218;28;20382;-94
2022/04/09 03:27:26;;;;;;;5.95;5.45;;;;;;;3.06;82.43;99688.09;5096542;28;20974;-93
2022/04/09 03:29:52;;;;;;;6.27;5.77;;;;;;;3.05;82.78;99695.28;5098469;28;20549;-92
2022/04/09 03:32:18;;;;;;;6.20;5.70;;;;;;;3.02;82.60;99703.75;5119837;28;20464;-93
2022/04/09 03:34:44;;;;;;;6.88;6.35;;;;;;;2.96;83.14;99706.47;5121664;28;20438;-92
2022/04/09 03:37:09;;;;;;;7.55;6.95;;;;;;;2.90;83.10;99713.47;5115908;28;20409;-91
2022/04/09 03:39:36;;;;;;;7.03;6.50;;;;;;;2.96;83.10;99718.00;5100754;28;20414;-92
2022/04/09 03:42:02;;;;;;;7.55;6.95;;;;;;;2.96;82.97;99720.69;5117406;28;20464;-91
2022/04/09 03:44:27;;;;;;;7.63;7.03;;;;;;;2.95;83.35;99728.91;5121246;28;20555;-90
2022/04/09 03:47:02;;;;;;;8.00;7.03;;;;;;;2.98;83.26;99731.97;5122982;28;20396;-90
2022/04/09 03:49:32;;;;;;;8.25;7.55;;;;;;;2.99;82.65;99741.66;5120575;28;20384;-91
2022/04/09 03:51:58;;;;;;;8.30;7.65;;;;;;;2.96;82.85;99743.94;5111330;28;20390;-91
2022/04/09 03:54:24;;;;;;;9.10;8.30;;;;;;;2.95;83.35;99737.75;5095730;28;20877;-90
2022/04/09 03:56:49;;;;;;;8.70;8.00;;;;;;;2.93;82.79;99747.03;5101478;28;20809;-91
2022/04/09 03:59:15;;;;;;;9.85;8.90;;;;;;;2.92;83.29;99753.41;5100241;28;20394;-90
2022/04/09 04:01:43;;;;;;;10.07;9.18;;;;;;;2.93;83.55;99749.72;5099259;28;20879;-90
2022/04/09 04:04:10;;;;;;;10.73;9.73;;;;;;;2.86;83.13;99760.47;5107990;28;20397;-90
2022/04/09 04:06:35;;;;;;;10.48;9.50;;;;;;;2.77;83.23;99755.53;5107721;28;20746;-89
2022/04/09 04:09:00;;;;;;;10.50;9.47;;;;;;;2.70;84.04;99754.75;5096856;28;20477;-89
2022/04/09 04:11:26;;;;;;;11.93;10.43;;;;;;;2.63;83.57;99763.59;5094708;28;20390;-89
2022/04/09 04:13:51;;;;;;;13.32;12.02;;;;;;;2.58;84.09;99768.75;5100423;28;20475;-89
2022/04/09 04:16:16;;;;;;;13.30;11.77;;;;;;;2.55;84.15;99768.38;5113416;28;20479;-90
2022/04/09 04:18:42;;;;;;;12.57;11.33;;;;;;;2.54;84.63;99777.41;5110163;28;20377;-89
2022/04/09 04:21:08;;;;;;;12.17;11.00;;;;;;;2.54;84.53;99788.09;5096887;28;20397;-88
2022/04/09 04:23:33;;;;;;;12.73;11.50;;;;;;;2.54;84.19;99783.59;5106744;28;20386;-89
2022/04/09 04:25:58;;;;;;;12.40;11.17;;;;;;;2.59;84.22;99805.19;5099741;28;20764;-89
2022/04/09 04:28:24;;;;;;;12.47;11.17;;;;;;;2.54;84.67;99812.19;5102667;28;20536;-89
2022/04/09 04:30:49;;;;;;;12.70;11.40;;;;;;;2.55;84.45;99813.84;5102877;28;20392;-87
2022/04/09 04:33:14;;;;;;;14.23;11.30;;;;;;;2.55;84.44;99820.00;5106657;28;20412;-88
2022/04/09 04:35:40;;;;;;;14.03;12.20;;;;;;;2.53;84.11;99830.09;5112789;28;20442;-87
2022/04/09 04:38:05;;;;;;;13.73;12.33;;;;;;;2.56;84.27;99834.22;5111777;28;20382;-87
2022/04/09 04:40:30;;;;;;;13.43;12.03;;;;;;;2.63;84.55;99834.19;5107131;28;20439;-87
2022/04/09 04:42:56;;;;;;;14.17;12.67;;;;;;;2.67;84.56;99841.56;5111737;28;20957;-88
2022/04/09 04:45:22;;;;;;;14.48;13.00;;;;;;;2.73;85.28;99846.13;5106307;28;20888;-87
2022/04/09 04:47:48;;;;;;;16.92;14.88;;;;;;;2.77;84.52;99852.66;5098533;28;20549;-87
2022/04/09 04:50:15;;;;;;;15.73;14.20;;;;;;;2.78;84.54;99862.34;5105351;28;20457;-86
2022/04/09 04:52:41;;;;;;;17.77;15.80;;;;;;;2.77;84.61;99859.88;5109706;28;20386;-87
2022/04/09 04:55:08;;;;;;;18.17;16.23;;;;;;;2.87;84.73;99870.97;5112253;28;20392;-86
2022/04/09 04:57:47;;;;;;;17.08;15.32;;;;;;;2.94;84.37;99877.97;5101282;28;20404;-88
2022/04/09 05:00:16;;;;;;;17.67;15.90;;;;;;;3.03;84.35;99879.38;5099383;28;20488;-87
2022/04/09 05:02:42;;;;;;;19.88;17.15;;;;;;;3.05;84.17;99893.38;5095521;28;20406;-86
2022/04/09 05:05:07;;;;;;;19.43;16.77;;;;;;;2.99;84.00;99894.22;5093950;28;20943;-86
2022/04/09 05:07:47;;;;;;;23.23;17.60;;;;;;;2.99;84.10;99901.44;5106403;28;20415;-86
2022/04/09 05:10:15;;;;;;;19.85;17.10;;;;;;;2.97;83.88;99896.28;5102356;28;20395;-86
2022/04/09 05:12:41;;;;;;;20.17;17.05;;;;;;;2.96;84.19;99904.53;5098231;28;20401;-85
2022/04/09 05:15:09;;;;;;;19.60;17.13;;;;;;;2.89;83.57;99909.91;5101802;28;20408;-86
2022/04/09 05:17:37;;;;;;;24.08;18.67;;;;;;;2.90;84.28;99908.00;5106522;28;20389;-85
2022/04/09 05:20:08;;;;;;;25.73;18.35;;;;;;;2.90;83.81;99914.19;5105411;28;20461;-86
2022/04/09 05:22:33;;;;;;;23.60;18.83;;;;;;;2.89;83.88;99915.25;5105218;28;20808;-86
2022/04/09 05:24:59;;;;;;;23.52;19.55;;;;;;;2.86;83.71;99929.03;5109192;28;20400;-84
2022/04/09 05:27:28;;;;;;;24.15;18.98;;;;;;;2.74;84.48;99938.72;5103729;27;20472;-86
2022/04/09 05:29:53;;;;;;;23.48;20.25;;;;;;;2.71;85.25;99944.47;5101543;28;20404;-86
2022/04/09 05:32:18;;;;;;;26.13;19.77;;;;;;;2.75;84.99;99950.25;5105631;28;20839;-86
2022/04/09 05:34:45;;;;;;;24.35;19.77;;;;;;;2.72;85.20;99951.47;5099639;28;20473;-86
2022/04/09 05:37:11;;;;;;;26.00;20.23;;;;;;;2.79;84.70;99948.81;5101831;28;20544;-85
2022/04/09 05:39:36;;;;;;;23.73;19.60;;;;;;;2.89;84.98;99957.25;5096811;28;20481;-84
2022/04/09 05:42:02;;;;;;;23.42;19.02;;;;;;;2.89;85.17;99967.94;5110533;28;20441;-85
2022/04/09 05:44:27;;;;;;;28.73;24.17;;;;;;;2.92;84.76;99971.03;5099789;28;20443;-85
2022/04/09 05:46:52;;;;;;;30.23;20.67;;;;;;;2.99;85.06;99977.22;5108895;28;20416;-85
2022/04/09 05:49:18;;;;;;;28.45;20.95;;;;;;;3.03;84.69;99989.13;5107698;27;20449;-87
2022/04/09 05:51:43;;;;;;;25.20;20.67;;;;;;;3.10;84.88;99986.44;5105254;27;20765;-86
2022/04/09 05:54:09;;;;;;;23.15;20.05;;;;;;;3.18;84.54;99993.44;5099208;28;20421;-85
2022/04/09 05:56:34;;;;;;;24.63;19.70;;;;;;;3.26;84.60;99998.59;5104004;28;20820;-87
2022/04/09 05:58:59;;;;;;;22.77;18.77;;;;;;;3.32;84.42;100000.44;5102867;28;20432;-89
2022/04/09 06:01:25;;;;;;;22.17;19.75;;;;;;;3.35;84.25;100006.19;5100899;28;20406;-88
2022/04/09 06:03:50;;;;;;;23.97;19.87;;;;;;;3.40;84.28;100005.53;5108765;27;20427;-88
2022/04/09 06:06:15;;;;;;;29.63;20.87;;;;;;;3.53;84.36;100014.38;5106764;27;20880;-87
2022/04/09 06:08:40;;;;;;;24.27;19.77;;;;;;;3.73;84.17;100018.84;5105276;28;20411;-88
2022/04/09 06:11:06;;;;;;;22.30;18.60;;;;;;;3.86;83.16;100016.94;5113637;28;20408;-89
2022/04/09 06:13:32;;;;;;;22.33;19.93;;;;;;;3.89;82.26;100018.38;5116989;28;20415;-89
2022/04/09 06:15:57;;;;;;;21.97;18.83;;;;;;;3.81;82.50;100021.31;5099276;28;20396;-89
2022/04/09 06:18:23;;;;;;;24.07;19.50;;;;;;;3.77;82.76;100022.75;5114668;28;20794;-90
2022/04/09 06:20:48;;;;;;;26.03;21.73;;;;;;;3.87;82.74;100033.84;5108371;28;20447;-91
2022/04/09 06:23:14;;;;;;;21.55;18.38;;;;;;;3.91;82.75;100035.91;5114701;28;20403;-91
2022/04/09 06:25:39;;;;;;;24.43;19.87;;;;;;;3.96;82.79;100041.44;5111461;28;20447;-91
2022/04/09 06:28:05;;;;;;;23.83;20.43;;;;;;;4.02;82.84;100051.31;5106010;28;20416;-91
2022/04/09 06:30:30;;;;;;;25.07;19.50;;;;;;;4.09;82.86;100049.44;5120073;28;20397;-91
2022/04/09 06:32:55;;;;;;;22.03;19.20;;;;;;;4.09;82.74;100051.28;5125140;28;20404;-91
2022/04/09 06:35:21;;;;;;;24.45;19.15;;;;;;;4.14;82.92;100059.53;5113994;28;20458;-92
2022/04/09 06:37:47;;;;;;;24.58;20.73;;;;;;;4.21;82.73;100056.84;5111297;28;20418;-90
2022/04/09 06:40:13;;;;;;;23.47;20.63;;;;;;;4.29;82.95;100065.44;5111345;28;20394;-90
2022/04/09 06:42:41;;;;;;;23.30;19.87;;;;;;;4.40;82.71;100063.94;5104265;28;20792;-89
2022/04/09 06:45:10;;;;;;;21.95;19.42;;;;;;;4.46;82.51;100071.13;5109496;28;20509;-89
2022/04/09 06:47:39;;;;;;;22.58;18.70;;;;;;;4.24;82.76;100065.28;5114465;28;20393;-81
2022/04/09 06:50:06;;;;;;;23.03;19.37;;;;;;;4.29;82.61;100072.66;5098016;28;20402;-80
2022/04/09 06:52:32;;;;;;;22.67;19.08;;;;;;;4.33;82.61;100079.25;5111309;27;20402;-79
2022/04/09 06:54:58;;;;;;;23.23;19.87;;;;;;;4.41;82.69;100084.38;5113644;27;20892;-80
2022/04/09 06:57:24;;;;;;;24.92;19.73;;;;;;;4.59;82.96;100087.16;5109520;28;20388;-80
2022/04/09 06:59:49;;;;;;;26.38;19.63;;;;;;;4.70;82.23;100084.63;5108035;28;20553;-78
2022/04/09 07:02:14;;;;;;;24.93;19.40;;;;;;;4.62;81.69;100090.25;5072930;28;20800;-83
2022/04/09 07:04:40;;;;;;;27.73;19.37;;;;;;;4.47;81.81;100091.56;5105934;28;20404;-79
2022/04/09 07:07:05;;;;;;;22.33;18.13;;;;;;;4.20;82.11;100098.91;5098746;28;20479;-77
2022/04/09 07:09:30;;;;;;;21.17;17.83;;;;;;;4.17;82.63;100099.34;5105784;28;20808;-79
2022/04/09 07:11:55;;;;;;;40.70;28.87;;;;;;;4.14;82.81;100095.22;5110127;28;20409;-78
2022/04/09 07:14:21;;;;;;;25.77;22.77;;;;;;;4.17;83.00;100096.66;5103541;28;20426;-78
2022/04/09 07:16:47;;;;;;;25.03;21.10;;;;;;;4.25;82.76;100096.41;5104133;28;20453;-79
2022/04/09 07:19:13;;;;;;;20.95;18.73;;;;;;;4.41;83.17;100106.66;5103916;28;20429;-79
2022/04/09 07:21:38;;;;;;;20.02;16.48;;;;;;;4.65;81.92;100097.88;5108015;28;20397;-79
2022/04/09 07:24:04;;;;;;;22.60;16.63;;;;;;;4.67;81.09;100111.91;5093326;28;20490;-79
2022/04/09 07:26:29;;;;;;;19.77;16.20;;;;;;;4.85;80.65;100119.22;5108159;28;20388;-79
2022/04/09 07:28:54;;;;;;;19.53;16.37;;;;;;;4.88;80.48;100124.16;5106501;28;20407;-78
2022/04/09 07:31:20;;;;;;;20.07;15.47;;;;;;;4.94;80.60;100127.88;5103985;28;20404;-79
2022/04/09 07:33:45;;;;;;;20.20;15.57;;;;;;;5.18;79.49;100135.94;5097408;28;20436;-78
2022/04/09 07:36:11;;;;;;;22.47;15.93;;;;;;;5.22;79.72;100136.34;5107120;28;20474;-78
2022/04/09 07:38:36;;;;;;;17.27;15.40;;;;;;;5.46;79.38;100137.41;5102279;28;20879;-78
2022/04/09 07:41:01;;;;;;;19.42;14.90;;;;;;;5.55;78.86;100134.22;5089970;28;20442;-78
2022/04/09 07:43:27;;;;;;;21.45;16.58;;;;;;;5.64;77.91;100132.88;5081191;28;20492;-79
2022/04/09 07:45:52;;;;;;;18.73;15.63;;;;;;;5.68;78.46;100141.31;5086757;28;20413;-78
2022/04/09 07:48:17;;;;;;;26.37;16.63;;;;;;;5.93;77.53;100146.72;5086474;28;20418;-80
2022/04/09 07:50:43;;;;;;;19.43;15.40;;;;;;;5.99;77.13;100148.53;5084672;28;20416;-79
2022/04/09 07:53:09;;;;;;;19.67;16.03;;;;;;;5.85;76.76;100152.34;5090597;28;20955;-81
2022/04/09 07:55:35;;;;;;;22.23;14.80;;;;;;;5.96;77.43;100148.97;5082000;28;20487;-80
2022/04/09 07:58:01;;;;;;;20.33;14.90;;;;;;;5.91;76.44;100154.19;5086859;28;20412;-80
2022/04/09 08:00:27;;;;;;;22.17;15.43;;;;;;;5.86;77.14;100152.13;5082411;28;21028;-78
2022/04/09 08:02:52;;;;;;;16.27;14.43;;;;;;;5.82;77.38;100145.56;5088560;28;20482;-77
2022/04/09 08:05:18;;;;;;;18.73;15.37;;;;;;;5.73;78.01;100138.78;5078154;28;20407;-78
2022/04/09 08:07:46;;;;;;;17.83;14.60;;;;;;;5.67;78.83;100143.19;5083775;28;20765;-78
2022/04/09 08:10:14;;;;;;;18.95;14.70;;;;;;;5.80;78.27;100142.25;5090478;28;20407;-77
2022/04/09 08:12:41;;;;;;;18.73;14.32;;;;;;;5.91;77.75;100149.63;5074776;28;20774;-78
2022/04/09 08:15:07;;;;;;;16.98;14.38;;;;;;;6.07;78.14;100154.41;5086347;28;20522;-77
2022/04/09 08:17:33;;;;;;;19.15;14.88;;;;;;;5.92;78.20;100148.59;5079690;28;20409;-78
2022/04/09 08:20:00;;;;;;;22.20;15.00;;;;;;;6.13;78.03;100153.53;5079553;28;20400;-79
2022/04/09 08:22:27;;;;;;;17.40;14.43;;;;;;;6.24;77.85;100152.78;5087048;28;20394;-79
2022/04/09 08:24:52;;;;;;;20.70;14.15;;;;;;;6.25;77.92;100153.63;5084171;28;20406;-79
2022/04/09 08:27:17;;;;;;;17.45;14.27;;;;;;;6.21;78.44;100158.63;5083191;28;20412;-80
2022/04/09 08:29:42;;;;;;;20.57;14.37;;;;;;;6.16;78.59;100158.47;5086672;28;20720;-80
2022/04/09 08:32:08;;;;;;;18.07;13.67;;;;;;;6.17;78.53;100161.97;5092920;28;20440;-79
2022/04/09 08:34:35;;;;;;;17.67;13.07;;;;;;;6.51;78.44;100161.38;5074198;28;20408;-80
2022/04/09 08:37:01;;;;;;;15.67;11.60;;;;;;;7.22;77.04;100157.91;5091216;28;20801;-81
2022/04/09 08:39:26;;;;;;;18.83;12.23;;;;;;;7.72;74.87;100142.19;5084471;28;20391;-79
2022/04/09 08:41:53;;;;;;;17.57;11.23;;;;;;;7.82;73.14;100151.34;5071585;28;20732;-81
2022/04/09 08:44:19;;;;;;;12.45;10.95;;;;;;;7.41;72.05;100158.69;5078108;28;20446;-81
2022/04/09 08:46:46;;;;;;;16.33;11.37;;;;;;;6.98;74.23;100154.31;5082976;28;20801;-81
2022/04/09 08:49:12;;;;;;;17.05;13.02;;;;;;;6.90;75.16;100153.84;5076567;28;20392;-81
2022/04/09 08:51:37;;;;;;;13.87;10.07;;;;;;;6.90;74.31;100161.91;5084662;28;20390;-81
2022/04/09 08:54:04;;;;;;;12.37;9.10;;;;;;;6.83;73.84;100147.72;5080518;28;20464;-81
2022/04/09 08:56:31;;;;;;;12.45;7.75;;;;;;;7.22;74.08;100147.16;5089968;28;20441;-81
2022/04/09 08:58:57;;;;;;;10.93;8.30;;;;;;;7.63;73.05;100147.13;5088041;28;20395;-81
2022/04/09 09:01:22;;;;;;;16.30;8.52;;;;;;;7.97;70.29;100150.06;5072829;28;20439;-79
2022/04/09 09:03:48;;;;;;;16.27;8.47;;;;;;;8.20;70.28;100158.94;5091008;28;20421;-81
2022/04/09 09:06:35;;;;;;;13.43;7.82;;;;;;;9.46;66.69;100160.63;5081016;28;20410;-80
2022/04/09 09:09:03;;;;;;;12.30;7.28;;;;;;;9.11;65.52;100160.00;5084749;28;20407;-80
2022/04/09 09:11:29;;;;;;;14.65;7.35;;;;;;;9.92;63.58;100154.06;5072800;28;20938;-82
2022/04/09 09:14:00;;;;;;;10.77;6.47;;;;;;;11.72;58.70;100161.09;5085360;28;20540;-82
2022/04/09 09:16:25;;;;;;;13.37;7.50;;;;;;;11.36;57.69;100162.66;5076275;28;20788;-82
2022/04/09 09:18:52;;;;;;;10.47;6.60;;;;;;;11.54;58.86;100167.69;5081593;28;20404;-81
2022/04/09 09:21:26;;;;;;;10.37;5.40;;;;;;;13.15;53.39;100167.03;5085099;28;20483;-82
2022/04/09 09:23:52;;;;;;;10.40;4.90;;;;;;;13.31;50.54;100166.78;5077115;28;20407;-82
2022/04/09 09:26:22;;;;;;;8.38;5.07;;;;;;;14.26;49.30;100176.00;5088975;28;20449;-82
2022/04/09 09:28:57;;;;;;;9.52;4.50;;;;;;;14.97;46.99;100173.91;5081404;28;20390;-82
2022/04/09 09:31:41;;;;;;;7.60;5.17;;;;;;;14.08;48.25;100184.78;5079506;28;20435;-82
2022/04/09 09:34:15;;;;;;;12.20;5.88;;;;;;;12.69;52.82;100194.03;5073459;28;20423;-82
2022/04/09 09:36:43;;;;;;;11.13;4.67;;;;;;;14.86;47.45;100187.84;5082646;28;20391;-82
2022/04/09 09:39:10;;;;;;;8.52;4.18;;;;;;;15.72;44.28;100182.72;5088027;28;20403;-82
2022/04/09 09:42:05;;;;;;;12.27;4.80;;;;;;;16.32;42.08;100189.56;5088314;28;20473;-82
2022/04/09 09:44:32;;;;;;;9.55;4.10;;;;;;;14.25;46.82;100201.66;5081836;28;20386;-82
2022/04/09 09:47:06;;;;;;;9.10;3.93;;;;;;;17.66;41.49;100191.97;5091215;28;20389;-83
2022/04/09 09:49:37;;;;;;;7.55;4.20;;;;;;;19.26;37.15;100197.50;5091696;28;20391;-83
2022/04/09 09:52:06;;;;;;;9.75;4.25;;;;;;;17.34;38.48;100195.47;5079133;28;20885;-83
2022/04/09 09:54:31;;;;;;;10.57;4.80;;;;;;;15.98;42.07;100207.91;5082019;28;20411;-83
2022/04/09 09:56:57;;;;;;;9.47;4.50;;;;;;;14.62;45.53;100214.16;5089566;28;20448;-83
2022/04/09 09:59:23;;;;;;;9.13;3.88;;;;;;;13.71;45.33;100216.91;5076444;28;20391;-83
2022/04/09 10:01:49;;;;;;;8.95;4.68;;;;;;;12.54;48.79;100217.63;5085761;28;20390;-82
2022/04/09 10:04:14;;;;;;;13.13;5.63;;;;;;;12.79;49.13;100215.84;5081948;28;20466;-83
2022/04/09 10:06:43;;;;;;;12.77;5.37;;;;;;;13.90;49.23;100218.00;5083172;28;20400;-83
2022/04/09 10:09:10;;;;;;;7.83;4.20;;;;;;;15.72;43.24;100215.50;5072976;28;20471;-84
2022/04/09 10:11:42;;;;;;;6.38;3.65;;;;;;;17.38;41.63;100214.84;5088426;28;20398;-83
2022/04/09 10:14:08;;;;;;;11.38;4.95;;;;;;;17.77;38.41;100225.53;5084611;28;20417;-84
2022/04/09 10:16:35;;;;;;;9.52;3.63;;;;;;;16.61;39.14;100230.59;5083660;28;20446;-84
2022/04/09 10:19:04;;;;;;;9.03;3.60;;;;;;;19.84;34.55;100226.97;5077210;28;20908;-84
2022/04/09 10:21:32;;;;;;;7.15;4.40;;;;;;;17.59;36.84;100232.66;5082526;28;20410;-84
2022/04/09 10:23:58;;;;;;;9.52;3.92;;;;;;;14.84;42.77;100237.25;5082984;28;20782;-84
2022/04/09 10:26:26;;;;;;;8.52;3.33;;;;;;;13.44;45.39;100228.03;5084545;28;20408;-83
2022/04/09 10:28:51;;;;;;;19.08;5.28;;;;;;;13.59;45.15;100235.44;5073881;28;20906;-83
2022/04/09 10:31:22;;;;;;;8.75;3.58;;;;;;;13.92;45.07;100229.47;5081809;28;20417;-85
2022/04/09 10:33:56;;;;;;;8.73;4.13;;;;;;;13.93;45.56;100231.91;5088426;28;20442;-85
2022/04/09 10:36:39;;;;;;;11.23;4.55;;;;;;;16.70;43.12;100222.56;5088878;28;20410;-85
2022/04/09 10:39:40;;;;;;;10.55;4.63;;;;;;;20.40;34.25;100224.47;5086261;28;20432;-85
2022/04/09 10:42:07;;;;;;;7.85;3.60;;;;;;;23.07;30.07;100226.19;5078290;28;20403;-85
2022/04/09 10:44:34;;;;;;;7.22;3.05;;;;;;;20.58;31.19;100223.41;5086605;28;20402;-86
2022/04/09 10:47:01;;;;;;;8.43;3.13;;;;;;;17.51;37.29;100234.13;5082254;28;20447;-85
2022/04/09 10:49:28;;;;;;;6.72;3.05;;;;;;;21.38;31.70;100226.94;5087972;28;20390;-85
2022/04/09 10:52:06;;;;;;;7.93;3.00;;;;;;;23.55;29.06;100233.22;5089800;28;20442;-84
2022/04/09 10:54:34;;;;;;;7.25;2.80;;;;;;;24.44;24.88;100226.25;5080476;28;21012;-86
2022/04/09 10:57:19;;;;;;;10.77;3.15;;;;;;;22.31;27.95;100233.59;5086194;28;20447;-86
2022/04/09 10:59:56;;;;;;;9.15;3.42;;;;;;;20.70;30.44;100223.66;5082785;28;20410;-82
2022/04/09 11:02:23;;;;;;;6.03;2.80;;;;;;;17.89;35.37;100232.19;5085336;28;20429;-81
2022/04/09 11:04:48;;;;;;;9.25;3.05;;;;;;;16.51;37.93;100225.19;5076871;28;20401;-81
2022/04/09 11:07:23;;;;;;;9.37;3.57;;;;;;;18.80;34.55;100225.13;5089666;28;20422;-79
2022/04/09 11:09:51;;;;;;;5.50;3.10;;;;;;;21.87;30.89;100220.97;5089704;28;20518;-82
2022/04/09 11:12:30;;;;;;;8.93;3.17;;;;;;;24.78;25.55;100214.78;5090170;28;20410;-81
2022/04/09 11:15:00;;;;;;;8.45;3.67;;;;;;;22.90;27.17;100218.00;5087957;28;20814;-80
2022/04/09 11:17:28;;;;;;;18.67;3.63;;;;;;;19.77;31.88;100226.59;5084603;28;20406;-80
2022/04/09 11:19:55;;;;;;;6.30;2.70;;;;;;;18.78;33.61;100218.28;5085390;28;20807;-79
2022/04/09 11:22:21;;;;;;;8.20;2.97;;;;;;;20.85;31.36;100207.81;5089608;28;20393;-79
2022/04/09 11:24:46;;;;;;;8.40;2.80;;;;;;;23.07;26.68;100214.31;5080973;28;20468;-80
2022/04/09 11:27:12;;;;;;;8.50;3.10;;;;;;;21.96;27.61;100216.31;5088702;28;20414;-81